sensor_id;sensor_type;location;lat;lon;timestamp;P1;durP1;ratioP1;P2;durP2;ratioP2
19291;SDS011;9779;51.756;7.450;2023-01-08T00:02:00;1.37;;;1.27;;
19291;SDS011;9779;51.756;7.450;2023-01-08T00:04:26;2.10;;;1.50;;
19291;SDS011;9779;51.756;7.450;2023-01-08T00:06:51;1.57;;;1.50;;
19291;SDS011;9779;51.756;7.450;2023-01-08T00:09:17;1.50;;;1.40;;
19291;SDS011;9779;51.756;7.450;2023-01-08T00:11:42;1.57;;;1.30;;
19291;SDS011;9779;51.756;7.450;2023-01-08T00:14:08;1.40;;;1.30;;
19291;SDS011;9779;51.756;7.450;2023-01-08T00:16:34;0.90;;;0.90;;
19291;SDS011;9779;51.756;7.450;2023-01-08T00:19:00;4.30;;;1.17;;
19291;SDS011;9779;51.756;7.450;2023-01-08T00:21:26;1.27;;;1.17;;
19291;SDS011;9779;51.756;7.450;2023-01-08T00:23:52;1.37;;;1.20;;
19291;SDS011;9779;51.756;7.450;2023-01-08T00:26:17;3.23;;;1.10;;
19291;SDS011;9779;51.756;7.450;2023-01-08T00:28:43;1.20;;;1.20;;
19291;SDS011;9779;51.756;7.450;2023-01-08T00:31:09;1.00;;;1.00;;
19291;SDS011;9779;51.756;7.450;2023-01-08T00:33:36;1.90;;;1.53;;
19291;SDS011;9779;51.756;7.450;2023-01-08T00:36:06;1.17;;;1.17;;
19291;SDS011;9779;51.756;7.450;2023-01-08T00:38:37;1.20;;;1.10;;
19291;SDS011;9779;51.756;7.450;2023-01-08T00:41:03;1.37;;;1.33;;
19291;SDS011;9779;51.756;7.450;2023-01-08T00:43:29;1.30;;;1.20;;
19291;SDS011;9779;51.756;7.450;2023-01-08T00:45:54;1.73;;;1.00;;
19291;SDS011;9779;51.756;7.450;2023-01-08T00:48:20;1.07;;;1.00;;
19291;SDS011;9779;51.756;7.450;2023-01-08T00:50:46;1.00;;;1.00;;
19291;SDS011;9779;51.756;7.450;2023-01-08T00:53:13;0.97;;;0.97;;
19291;SDS011;9779;51.756;7.450;2023-01-08T00:55:39;1.20;;;1.10;;
19291;SDS011;9779;51.756;7.450;2023-01-08T00:58:04;3.27;;;1.43;;
19291;SDS011;9779;51.756;7.450;2023-01-08T01:00:30;2.13;;;1.13;;
19291;SDS011;9779;51.756;7.450;2023-01-08T01:02:56;1.20;;;1.10;;
19291;SDS011;9779;51.756;7.450;2023-01-08T01:05:21;3.33;;;1.50;;
19291;SDS011;9779;51.756;7.450;2023-01-08T01:07:47;1.57;;;1.00;;
19291;SDS011;9779;51.756;7.450;2023-01-08T01:10:13;1.53;;;1.43;;
19291;SDS011;9779;51.756;7.450;2023-01-08T01:12:40;2.30;;;1.00;;
19291;SDS011;9779;51.756;7.450;2023-01-08T01:15:07;1.50;;;1.40;;
19291;SDS011;9779;51.756;7.450;2023-01-08T01:17:42;1.10;;;1.10;;
19291;SDS011;9779;51.756;7.450;2023-01-08T01:20:09;0.97;;;0.83;;
19291;SDS011;9779;51.756;7.450;2023-01-08T01:22:39;2.60;;;1.20;;
19291;SDS011;9779;51.756;7.450;2023-01-08T01:25:05;0.90;;;0.90;;
19291;SDS011;9779;51.756;7.450;2023-01-08T01:27:32;1.13;;;0.80;;
19291;SDS011;9779;51.756;7.450;2023-01-08T01:29:57;1.20;;;1.10;;
19291;SDS011;9779;51.756;7.450;2023-01-08T01:32:23;1.10;;;0.83;;
19291;SDS011;9779;51.756;7.450;2023-01-08T01:34:49;2.63;;;0.87;;
19291;SDS011;9779;51.756;7.450;2023-01-08T01:37:14;1.47;;;1.00;;
19291;SDS011;9779;51.756;7.450;2023-01-08T01:39:41;0.80;;;0.80;;
19291;SDS011;9779;51.756;7.450;2023-01-08T01:42:14;1.67;;;1.23;;
19291;SDS011;9779;51.756;7.450;2023-01-08T01:45:00;1.30;;;1.20;;
19291;SDS011;9779;51.756;7.450;2023-01-08T01:47:33;2.30;;;0.90;;
19291;SDS011;9779;51.756;7.450;2023-01-08T01:52:33;1.03;;;0.83;;
19291;SDS011;9779;51.756;7.450;2023-01-08T01:55:02;1.27;;;1.17;;
19291;SDS011;9779;51.756;7.450;2023-01-08T01:57:29;2.47;;;1.00;;
19291;SDS011;9779;51.756;7.450;2023-01-08T01:59:56;1.47;;;1.37;;
19291;SDS011;9779;51.756;7.450;2023-01-08T02:02:24;1.67;;;1.10;;
19291;SDS011;9779;51.756;7.450;2023-01-08T02:04:50;0.80;;;0.80;;
19291;SDS011;9779;51.756;7.450;2023-01-08T02:10:11;1.03;;;0.93;;
19291;SDS011;9779;51.756;7.450;2023-01-08T02:12:44;2.00;;;1.03;;
19291;SDS011;9779;51.756;7.450;2023-01-08T02:15:17;1.20;;;1.10;;
19291;SDS011;9779;51.756;7.450;2023-01-08T02:18:04;1.20;;;1.07;;
19291;SDS011;9779;51.756;7.450;2023-01-08T02:20:38;1.20;;;1.10;;
19291;SDS011;9779;51.756;7.450;2023-01-08T02:23:18;1.87;;;0.90;;
19291;SDS011;9779;51.756;7.450;2023-01-08T02:28:49;0.93;;;0.93;;
19291;SDS011;9779;51.756;7.450;2023-01-08T02:31:21;1.67;;;1.00;;
19291;SDS011;9779;51.756;7.450;2023-01-08T02:33:49;1.00;;;1.00;;
19291;SDS011;9779;51.756;7.450;2023-01-08T02:36:21;1.20;;;1.10;;
19291;SDS011;9779;51.756;7.450;2023-01-08T02:38:56;2.00;;;1.00;;
19291;SDS011;9779;51.756;7.450;2023-01-08T02:41:32;1.20;;;1.20;;
19291;SDS011;9779;51.756;7.450;2023-01-08T02:44:20;1.07;;;0.80;;
19291;SDS011;9779;51.756;7.450;2023-01-08T02:46:54;1.17;;;1.07;;
19291;SDS011;9779;51.756;7.450;2023-01-08T02:49:22;1.17;;;1.07;;
19291;SDS011;9779;51.756;7.450;2023-01-08T02:51:53;1.00;;;1.00;;
19291;SDS011;9779;51.756;7.450;2023-01-08T02:54:25;1.57;;;1.20;;
19291;SDS011;9779;51.756;7.450;2023-01-08T02:56:59;1.30;;;1.20;;
19291;SDS011;9779;51.756;7.450;2023-01-08T02:59:31;1.33;;;1.00;;
19291;SDS011;9779;51.756;7.450;2023-01-08T03:01:59;0.93;;;0.93;;
19291;SDS011;9779;51.756;7.450;2023-01-08T03:04:26;1.20;;;1.10;;
19291;SDS011;9779;51.756;7.450;2023-01-08T03:06:55;3.97;;;1.13;;
19291;SDS011;9779;51.756;7.450;2023-01-08T03:09:21;1.17;;;0.97;;
19291;SDS011;9779;51.756;7.450;2023-01-08T03:12:34;1.07;;;1.07;;
19291;SDS011;9779;51.756;7.450;2023-01-08T03:14:38;2.20;;;1.37;;
19291;SDS011;9779;51.756;7.450;2023-01-08T03:17:13;1.33;;;1.10;;
19291;SDS011;9779;51.756;7.450;2023-01-08T03:19:55;1.27;;;1.17;;
19291;SDS011;9779;51.756;7.450;2023-01-08T03:22:25;1.50;;;1.40;;
19291;SDS011;9779;51.756;7.450;2023-01-08T03:24:54;1.47;;;1.00;;
19291;SDS011;9779;51.756;7.450;2023-01-08T03:27:24;2.33;;;1.03;;
19291;SDS011;9779;51.756;7.450;2023-01-08T03:29:53;1.63;;;1.53;;
19291;SDS011;9779;51.756;7.450;2023-01-08T03:32:22;1.43;;;1.20;;
19291;SDS011;9779;51.756;7.450;2023-01-08T03:34:49;1.00;;;1.00;;
19291;SDS011;9779;51.756;7.450;2023-01-08T03:37:23;1.77;;;0.90;;
19291;SDS011;9779;51.756;7.450;2023-01-08T03:39:56;1.33;;;1.20;;
19291;SDS011;9779;51.756;7.450;2023-01-08T03:42:29;1.93;;;1.40;;
19291;SDS011;9779;51.756;7.450;2023-01-08T03:44:56;1.07;;;1.07;;
19291;SDS011;9779;51.756;7.450;2023-01-08T03:47:23;1.83;;;1.20;;
19291;SDS011;9779;51.756;7.450;2023-01-08T03:49:51;0.93;;;0.93;;
19291;SDS011;9779;51.756;7.450;2023-01-08T03:52:23;1.30;;;1.20;;
19291;SDS011;9779;51.756;7.450;2023-01-08T03:54:50;1.50;;;1.40;;
19291;SDS011;9779;51.756;7.450;2023-01-08T03:57:16;3.03;;;1.20;;
19291;SDS011;9779;51.756;7.450;2023-01-08T03:59:41;4.40;;;1.43;;
19291;SDS011;9779;51.756;7.450;2023-01-08T04:02:07;1.30;;;1.20;;
19291;SDS011;9779;51.756;7.450;2023-01-08T04:04:33;1.33;;;1.23;;
19291;SDS011;9779;51.756;7.450;2023-01-08T04:06:59;2.77;;;1.47;;
19291;SDS011;9779;51.756;7.450;2023-01-08T04:09:24;4.03;;;1.30;;
19291;SDS011;9779;51.756;7.450;2023-01-08T04:11:50;1.47;;;1.37;;
19291;SDS011;9779;51.756;7.450;2023-01-08T04:14:16;1.30;;;1.20;;
19291;SDS011;9779;51.756;7.450;2023-01-08T04:16:43;1.73;;;1.23;;
19291;SDS011;9779;51.756;7.450;2023-01-08T04:19:12;1.43;;;1.20;;
19291;SDS011;9779;51.756;7.450;2023-01-08T04:21:38;1.30;;;1.20;;
19291;SDS011;9779;51.756;7.450;2023-01-08T04:24:04;1.30;;;1.20;;
19291;SDS011;9779;51.756;7.450;2023-01-08T04:26:30;1.20;;;1.20;;
19291;SDS011;9779;51.756;7.450;2023-01-08T04:29:01;2.93;;;1.33;;
19291;SDS011;9779;51.756;7.450;2023-01-08T04:31:27;1.30;;;1.20;;
19291;SDS011;9779;51.756;7.450;2023-01-08T04:33:53;1.20;;;1.20;;
19291;SDS011;9779;51.756;7.450;2023-01-08T04:36:19;1.30;;;1.30;;
19291;SDS011;9779;51.756;7.450;2023-01-08T04:38:44;3.97;;;1.60;;
19291;SDS011;9779;51.756;7.450;2023-01-08T04:41:10;1.40;;;1.30;;
19291;SDS011;9779;51.756;7.450;2023-01-08T04:43:36;1.13;;;1.10;;
19291;SDS011;9779;51.756;7.450;2023-01-08T04:46:02;1.20;;;1.10;;
19291;SDS011;9779;51.756;7.450;2023-01-08T04:48:31;1.40;;;1.33;;
19291;SDS011;9779;51.756;7.450;2023-01-08T04:51:00;1.27;;;1.03;;
19291;SDS011;9779;51.756;7.450;2023-01-08T04:53:27;1.10;;;1.10;;
19291;SDS011;9779;51.756;7.450;2023-01-08T04:55:54;1.40;;;1.20;;
19291;SDS011;9779;51.756;7.450;2023-01-08T04:58:20;1.57;;;1.47;;
19291;SDS011;9779;51.756;7.450;2023-01-08T05:00:46;1.20;;;1.10;;
19291;SDS011;9779;51.756;7.450;2023-01-08T05:03:12;1.27;;;1.03;;
19291;SDS011;9779;51.756;7.450;2023-01-08T05:05:38;1.07;;;0.97;;
19291;SDS011;9779;51.756;7.450;2023-01-08T05:08:04;1.17;;;1.07;;
19291;SDS011;9779;51.756;7.450;2023-01-08T05:10:30;1.47;;;1.23;;
19291;SDS011;9779;51.756;7.450;2023-01-08T05:12:58;0.97;;;0.90;;
19291;SDS011;9779;51.756;7.450;2023-01-08T05:15:25;1.80;;;1.53;;
19291;SDS011;9779;51.756;7.450;2023-01-08T05:18:00;2.23;;;1.10;;
19291;SDS011;9779;51.756;7.450;2023-01-08T05:20:27;1.00;;;0.90;;
19291;SDS011;9779;51.756;7.450;2023-01-08T05:22:53;1.33;;;1.23;;
19291;SDS011;9779;51.756;7.450;2023-01-08T05:25:19;0.87;;;0.80;;
19291;SDS011;9779;51.756;7.450;2023-01-08T05:27:45;1.20;;;1.10;;
19291;SDS011;9779;51.756;7.450;2023-01-08T05:30:11;0.93;;;0.90;;
19291;SDS011;9779;51.756;7.450;2023-01-08T05:32:37;0.97;;;0.90;;
19291;SDS011;9779;51.756;7.450;2023-01-08T05:35:03;1.47;;;1.00;;
19291;SDS011;9779;51.756;7.450;2023-01-08T05:37:28;1.00;;;1.00;;
19291;SDS011;9779;51.756;7.450;2023-01-08T05:39:54;0.73;;;0.70;;
19291;SDS011;9779;51.756;7.450;2023-01-08T05:42:19;0.70;;;0.70;;
19291;SDS011;9779;51.756;7.450;2023-01-08T05:44:45;0.80;;;0.80;;
19291;SDS011;9779;51.756;7.450;2023-01-08T05:47:11;0.80;;;0.70;;
19291;SDS011;9779;51.756;7.450;2023-01-08T05:49:37;0.93;;;0.90;;
19291;SDS011;9779;51.756;7.450;2023-01-08T05:52:03;1.00;;;0.87;;
19291;SDS011;9779;51.756;7.450;2023-01-08T05:54:29;0.93;;;0.93;;
19291;SDS011;9779;51.756;7.450;2023-01-08T05:56:54;0.83;;;0.73;;
19291;SDS011;9779;51.756;7.450;2023-01-08T05:59:20;1.27;;;0.93;;
19291;SDS011;9779;51.756;7.450;2023-01-08T06:01:45;1.40;;;0.73;;
19291;SDS011;9779;51.756;7.450;2023-01-08T06:04:12;1.20;;;0.73;;
19291;SDS011;9779;51.756;7.450;2023-01-08T06:06:37;0.80;;;0.80;;
19291;SDS011;9779;51.756;7.450;2023-01-08T06:09:03;0.80;;;0.77;;
19291;SDS011;9779;51.756;7.450;2023-01-08T06:11:29;0.87;;;0.87;;
19291;SDS011;9779;51.756;7.450;2023-01-08T06:13:54;0.60;;;0.60;;
19291;SDS011;9779;51.756;7.450;2023-01-08T06:16:20;1.57;;;1.20;;
19291;SDS011;9779;51.756;7.450;2023-01-08T06:18:45;0.80;;;0.80;;
19291;SDS011;9779;51.756;7.450;2023-01-08T06:21:11;0.80;;;0.80;;
19291;SDS011;9779;51.756;7.450;2023-01-08T06:23:37;1.53;;;1.03;;
19291;SDS011;9779;51.756;7.450;2023-01-08T06:26:04;1.00;;;0.63;;
19291;SDS011;9779;51.756;7.450;2023-01-08T06:28:30;1.13;;;0.93;;
19291;SDS011;9779;51.756;7.450;2023-01-08T06:30:59;0.70;;;0.70;;
19291;SDS011;9779;51.756;7.450;2023-01-08T06:33:26;1.03;;;0.83;;
19291;SDS011;9779;51.756;7.450;2023-01-08T06:35:52;1.80;;;0.90;;
19291;SDS011;9779;51.756;7.450;2023-01-08T06:38:18;0.80;;;0.80;;
19291;SDS011;9779;51.756;7.450;2023-01-08T06:40:44;0.97;;;0.97;;
19291;SDS011;9779;51.756;7.450;2023-01-08T06:43:10;0.97;;;0.70;;
19291;SDS011;9779;51.756;7.450;2023-01-08T06:45:36;2.10;;;0.80;;
19291;SDS011;9779;51.756;7.450;2023-01-08T06:48:02;0.93;;;0.60;;
19291;SDS011;9779;51.756;7.450;2023-01-08T06:50:30;0.80;;;0.80;;
19291;SDS011;9779;51.756;7.450;2023-01-08T06:52:57;2.53;;;0.60;;
19291;SDS011;9779;51.756;7.450;2023-01-08T06:55:23;1.00;;;0.80;;
19291;SDS011;9779;51.756;7.450;2023-01-08T06:57:53;0.60;;;0.60;;
19291;SDS011;9779;51.756;7.450;2023-01-08T07:00:19;0.80;;;0.80;;
19291;SDS011;9779;51.756;7.450;2023-01-08T07:02:46;2.90;;;0.63;;
19291;SDS011;9779;51.756;7.450;2023-01-08T07:05:11;0.77;;;0.70;;
19291;SDS011;9779;51.756;7.450;2023-01-08T07:07:37;0.97;;;0.97;;
19291;SDS011;9779;51.756;7.450;2023-01-08T07:10:03;1.17;;;0.80;;
19291;SDS011;9779;51.756;7.450;2023-01-08T07:12:28;0.77;;;0.77;;
19291;SDS011;9779;51.756;7.450;2023-01-08T07:14:54;1.10;;;1.00;;
19291;SDS011;9779;51.756;7.450;2023-01-08T07:17:19;0.93;;;0.80;;
19291;SDS011;9779;51.756;7.450;2023-01-08T07:19:45;0.93;;;0.93;;
19291;SDS011;9779;51.756;7.450;2023-01-08T07:22:10;7.00;;;0.90;;
19291;SDS011;9779;51.756;7.450;2023-01-08T07:24:36;0.80;;;0.80;;
19291;SDS011;9779;51.756;7.450;2023-01-08T07:27:01;1.20;;;0.73;;
19291;SDS011;9779;51.756;7.450;2023-01-08T07:29:27;0.80;;;0.80;;
19291;SDS011;9779;51.756;7.450;2023-01-08T07:31:53;7.03;;;1.17;;
19291;SDS011;9779;51.756;7.450;2023-01-08T07:34:18;1.93;;;0.93;;
19291;SDS011;9779;51.756;7.450;2023-01-08T07:36:44;2.80;;;0.63;;
19291;SDS011;9779;51.756;7.450;2023-01-08T07:39:09;1.97;;;0.87;;
19291;SDS011;9779;51.756;7.450;2023-01-08T07:41:35;1.17;;;0.83;;
19291;SDS011;9779;51.756;7.450;2023-01-08T07:44:00;1.20;;;1.10;;
19291;SDS011;9779;51.756;7.450;2023-01-08T07:46:26;0.90;;;0.90;;
19291;SDS011;9779;51.756;7.450;2023-01-08T07:48:51;1.23;;;0.60;;
19291;SDS011;9779;51.756;7.450;2023-01-08T07:51:17;1.03;;;0.87;;
19291;SDS011;9779;51.756;7.450;2023-01-08T07:53:42;1.40;;;1.23;;
19291;SDS011;9779;51.756;7.450;2023-01-08T07:56:08;2.43;;;0.80;;
19291;SDS011;9779;51.756;7.450;2023-01-08T07:58:35;1.47;;;1.10;;
19291;SDS011;9779;51.756;7.450;2023-01-08T08:01:01;3.87;;;0.90;;
19291;SDS011;9779;51.756;7.450;2023-01-08T08:03:28;1.57;;;0.70;;
19291;SDS011;9779;51.756;7.450;2023-01-08T08:05:53;0.93;;;0.83;;
19291;SDS011;9779;51.756;7.450;2023-01-08T08:08:19;2.23;;;1.10;;
19291;SDS011;9779;51.756;7.450;2023-01-08T08:10:45;0.70;;;0.70;;
19291;SDS011;9779;51.756;7.450;2023-01-08T08:13:11;1.50;;;0.80;;
19291;SDS011;9779;51.756;7.450;2023-01-08T08:15:37;1.00;;;0.70;;
19291;SDS011;9779;51.756;7.450;2023-01-08T08:18:04;2.23;;;0.80;;
19291;SDS011;9779;51.756;7.450;2023-01-08T08:20:30;2.00;;;0.70;;
19291;SDS011;9779;51.756;7.450;2023-01-08T08:22:59;3.57;;;0.90;;
19291;SDS011;9779;51.756;7.450;2023-01-08T08:25:25;1.93;;;0.80;;
19291;SDS011;9779;51.756;7.450;2023-01-08T08:27:51;2.80;;;1.07;;
19291;SDS011;9779;51.756;7.450;2023-01-08T08:30:19;3.47;;;1.00;;
19291;SDS011;9779;51.756;7.450;2023-01-08T08:32:45;3.27;;;0.80;;
19291;SDS011;9779;51.756;7.450;2023-01-08T08:35:10;2.17;;;1.00;;
19291;SDS011;9779;51.756;7.450;2023-01-08T08:37:36;1.70;;;0.77;;
19291;SDS011;9779;51.756;7.450;2023-01-08T08:40:01;0.60;;;0.60;;
19291;SDS011;9779;51.756;7.450;2023-01-08T08:42:27;1.90;;;0.80;;
19291;SDS011;9779;51.756;7.450;2023-01-08T08:44:53;1.10;;;1.10;;
19291;SDS011;9779;51.756;7.450;2023-01-08T08:47:18;2.57;;;0.70;;
19291;SDS011;9779;51.756;7.450;2023-01-08T08:49:44;2.50;;;0.60;;
19291;SDS011;9779;51.756;7.450;2023-01-08T08:52:09;1.27;;;0.73;;
19291;SDS011;9779;51.756;7.450;2023-01-08T08:54:35;3.30;;;0.80;;
19291;SDS011;9779;51.756;7.450;2023-01-08T08:57:05;2.00;;;0.60;;
19291;SDS011;9779;51.756;7.450;2023-01-08T08:59:32;1.27;;;0.90;;
19291;SDS011;9779;51.756;7.450;2023-01-08T09:01:57;2.40;;;0.87;;
19291;SDS011;9779;51.756;7.450;2023-01-08T09:04:23;1.50;;;0.70;;
19291;SDS011;9779;51.756;7.450;2023-01-08T09:06:48;2.67;;;0.80;;
19291;SDS011;9779;51.756;7.450;2023-01-08T09:09:14;2.73;;;1.07;;
19291;SDS011;9779;51.756;7.450;2023-01-08T09:11:39;2.30;;;0.77;;
19291;SDS011;9779;51.756;7.450;2023-01-08T09:14:05;1.73;;;0.90;;
19291;SDS011;9779;51.756;7.450;2023-01-08T09:16:30;0.50;;;0.50;;
19291;SDS011;9779;51.756;7.450;2023-01-08T09:18:57;1.20;;;0.70;;
19291;SDS011;9779;51.756;7.450;2023-01-08T09:21:23;0.83;;;0.80;;
19291;SDS011;9779;51.756;7.450;2023-01-08T09:23:48;3.50;;;1.10;;
19291;SDS011;9779;51.756;7.450;2023-01-08T09:26:14;5.10;;;4.43;;
19291;SDS011;9779;51.756;7.450;2023-01-08T09:28:39;3.83;;;2.90;;
19291;SDS011;9779;51.756;7.450;2023-01-08T09:31:05;5.37;;;3.20;;
19291;SDS011;9779;51.756;7.450;2023-01-08T09:33:31;6.17;;;2.10;;
19291;SDS011;9779;51.756;7.450;2023-01-08T09:35:56;2.63;;;1.37;;
19291;SDS011;9779;51.756;7.450;2023-01-08T09:38:22;3.43;;;1.10;;
19291;SDS011;9779;51.756;7.450;2023-01-08T09:40:59;2.67;;;1.30;;
19291;SDS011;9779;51.756;7.450;2023-01-08T09:43:29;2.13;;;1.20;;
19291;SDS011;9779;51.756;7.450;2023-01-08T09:45:58;3.43;;;1.20;;
19291;SDS011;9779;51.756;7.450;2023-01-08T09:48:27;1.97;;;1.00;;
19291;SDS011;9779;51.756;7.450;2023-01-08T09:50:56;4.00;;;1.20;;
19291;SDS011;9779;51.756;7.450;2023-01-08T09:53:22;5.37;;;1.07;;
19291;SDS011;9779;51.756;7.450;2023-01-08T09:55:54;3.43;;;1.20;;
19291;SDS011;9779;51.756;7.450;2023-01-08T10:01:04;2.93;;;1.33;;
19291;SDS011;9779;51.756;7.450;2023-01-08T10:03:37;4.77;;;1.50;;
19291;SDS011;9779;51.756;7.450;2023-01-08T10:06:11;8.93;;;1.87;;
19291;SDS011;9779;51.756;7.450;2023-01-08T10:08:39;4.97;;;1.90;;
19291;SDS011;9779;51.756;7.450;2023-01-08T10:11:05;6.73;;;1.17;;
19291;SDS011;9779;51.756;7.450;2023-01-08T10:13:32;5.33;;;1.47;;
19291;SDS011;9779;51.756;7.450;2023-01-08T10:15:59;5.27;;;1.63;;
19291;SDS011;9779;51.756;7.450;2023-01-08T10:18:25;7.87;;;1.80;;
19291;SDS011;9779;51.756;7.450;2023-01-08T10:20:52;5.10;;;1.57;;
19291;SDS011;9779;51.756;7.450;2023-01-08T10:23:18;5.13;;;1.37;;
19291;SDS011;9779;51.756;7.450;2023-01-08T10:28:27;4.43;;;1.80;;
19291;SDS011;9779;51.756;7.450;2023-01-08T10:31:08;4.50;;;1.40;;
19291;SDS011;9779;51.756;7.450;2023-01-08T10:33:45;13.53;;;1.60;;
19291;SDS011;9779;51.756;7.450;2023-01-08T10:36:13;6.23;;;1.50;;
19291;SDS011;9779;51.756;7.450;2023-01-08T10:39:00;4.83;;;1.50;;
19291;SDS011;9779;51.756;7.450;2023-01-08T10:41:27;3.53;;;1.43;;
19291;SDS011;9779;51.756;7.450;2023-01-08T10:46:23;4.10;;;1.50;;
19291;SDS011;9779;51.756;7.450;2023-01-08T10:48:54;4.17;;;1.40;;
19291;SDS011;9779;51.756;7.450;2023-01-08T10:51:25;4.27;;;1.50;;
19291;SDS011;9779;51.756;7.450;2023-01-08T10:53:54;9.00;;;1.87;;
19291;SDS011;9779;51.756;7.450;2023-01-08T10:56:26;3.57;;;1.07;;
19291;SDS011;9779;51.756;7.450;2023-01-08T10:58:53;2.97;;;1.23;;
19291;SDS011;9779;51.756;7.450;2023-01-08T11:01:23;5.00;;;1.20;;
19291;SDS011;9779;51.756;7.450;2023-01-08T11:03:52;2.70;;;1.37;;
19291;SDS011;9779;51.756;7.450;2023-01-08T11:06:23;6.43;;;1.80;;
19291;SDS011;9779;51.756;7.450;2023-01-08T11:08:52;4.10;;;1.50;;
19291;SDS011;9779;51.756;7.450;2023-01-08T11:11:20;6.27;;;1.00;;
19291;SDS011;9779;51.756;7.450;2023-01-08T11:13:58;4.17;;;0.90;;
19291;SDS011;9779;51.756;7.450;2023-01-08T11:16:29;2.17;;;1.10;;
19291;SDS011;9779;51.756;7.450;2023-01-08T11:19:00;2.37;;;1.03;;
19291;SDS011;9779;51.756;7.450;2023-01-08T11:21:28;4.80;;;1.20;;
19291;SDS011;9779;51.756;7.450;2023-01-08T11:24:08;1.80;;;1.07;;
19291;SDS011;9779;51.756;7.450;2023-01-08T11:26:43;8.20;;;1.47;;
19291;SDS011;9779;51.756;7.450;2023-01-08T11:29:23;4.07;;;1.10;;
19291;SDS011;9779;51.756;7.450;2023-01-08T11:32:22;3.17;;;1.70;;
19291;SDS011;9779;51.756;7.450;2023-01-08T11:34:56;4.80;;;1.33;;
19291;SDS011;9779;51.756;7.450;2023-01-08T11:37:34;4.40;;;1.10;;
19291;SDS011;9779;51.756;7.450;2023-01-08T11:40:13;2.77;;;1.13;;
19291;SDS011;9779;51.756;7.450;2023-01-08T11:47:45;4.57;;;0.97;;
19291;SDS011;9779;51.756;7.450;2023-01-08T11:50:26;3.10;;;1.10;;
19291;SDS011;9779;51.756;7.450;2023-01-08T11:56:48;2.40;;;0.93;;
19291;SDS011;9779;51.756;7.450;2023-01-08T11:59:00;2.20;;;1.30;;
19291;SDS011;9779;51.756;7.450;2023-01-08T12:09:41;5.00;;;1.40;;
19291;SDS011;9779;51.756;7.450;2023-01-08T12:24:53;1.93;;;0.93;;
19291;SDS011;9779;51.756;7.450;2023-01-08T12:36:23;4.60;;;1.00;;
19291;SDS011;9779;51.756;7.450;2023-01-08T12:38:58;0.70;;;0.60;;
19291;SDS011;9779;51.756;7.450;2023-01-08T12:41:27;1.00;;;0.90;;
19291;SDS011;9779;51.756;7.450;2023-01-08T12:43:58;1.27;;;0.77;;
19291;SDS011;9779;51.756;7.450;2023-01-08T12:46:28;1.70;;;1.03;;
19291;SDS011;9779;51.756;7.450;2023-01-08T12:48:57;2.40;;;0.93;;
19291;SDS011;9779;51.756;7.450;2023-01-08T12:51:38;1.70;;;0.90;;
19291;SDS011;9779;51.756;7.450;2023-01-08T12:54:26;3.50;;;0.90;;
19291;SDS011;9779;51.756;7.450;2023-01-08T12:57:15;3.57;;;1.23;;
19291;SDS011;9779;51.756;7.450;2023-01-08T12:59:53;5.93;;;1.00;;
19291;SDS011;9779;51.756;7.450;2023-01-08T13:07:48;0.60;;;0.60;;
19291;SDS011;9779;51.756;7.450;2023-01-08T13:13:06;2.83;;;1.00;;
19291;SDS011;9779;51.756;7.450;2023-01-08T13:15:47;2.93;;;0.50;;
19291;SDS011;9779;51.756;7.450;2023-01-08T13:18:16;0.77;;;0.53;;
19291;SDS011;9779;51.756;7.450;2023-01-08T13:20:56;0.70;;;0.57;;
19291;SDS011;9779;51.756;7.450;2023-01-08T13:23:25;2.93;;;0.90;;
19291;SDS011;9779;51.756;7.450;2023-01-08T13:25:54;2.10;;;0.60;;
19291;SDS011;9779;51.756;7.450;2023-01-08T13:28:27;2.20;;;0.77;;
19291;SDS011;9779;51.756;7.450;2023-01-08T13:30:53;0.83;;;0.80;;
19291;SDS011;9779;51.756;7.450;2023-01-08T13:38:36;0.57;;;0.57;;
19291;SDS011;9779;51.756;7.450;2023-01-08T13:41:03;0.90;;;0.60;;
19291;SDS011;9779;51.756;7.450;2023-01-08T13:43:30;0.63;;;0.60;;
19291;SDS011;9779;51.756;7.450;2023-01-08T13:48:35;0.50;;;0.50;;
19291;SDS011;9779;51.756;7.450;2023-01-08T13:51:03;1.97;;;0.47;;
19291;SDS011;9779;51.756;7.450;2023-01-08T13:53:30;2.10;;;0.60;;
19291;SDS011;9779;51.756;7.450;2023-01-08T13:55:58;1.17;;;0.60;;
19291;SDS011;9779;51.756;7.450;2023-01-08T13:58:28;0.40;;;0.40;;
19291;SDS011;9779;51.756;7.450;2023-01-08T14:01:01;1.77;;;0.47;;
19291;SDS011;9779;51.756;7.450;2023-01-08T14:03:29;0.93;;;0.67;;
19291;SDS011;9779;51.756;7.450;2023-01-08T14:06:16;0.80;;;0.63;;
19291;SDS011;9779;51.756;7.450;2023-01-08T14:08:49;1.67;;;0.50;;
19291;SDS011;9779;51.756;7.450;2023-01-08T14:11:29;0.77;;;0.43;;
19291;SDS011;9779;51.756;7.450;2023-01-08T14:14:09;0.53;;;0.50;;
19291;SDS011;9779;51.756;7.450;2023-01-08T14:16:39;1.00;;;0.63;;
19291;SDS011;9779;51.756;7.450;2023-01-08T14:19:05;2.47;;;0.70;;
19291;SDS011;9779;51.756;7.450;2023-01-08T14:21:31;3.07;;;0.93;;
19291;SDS011;9779;51.756;7.450;2023-01-08T14:23:57;0.80;;;0.80;;
19291;SDS011;9779;51.756;7.450;2023-01-08T14:26:27;0.93;;;0.80;;
19291;SDS011;9779;51.756;7.450;2023-01-08T14:28:56;0.60;;;0.60;;
19291;SDS011;9779;51.756;7.450;2023-01-08T14:31:25;0.60;;;0.60;;
19291;SDS011;9779;51.756;7.450;2023-01-08T14:33:52;1.90;;;0.83;;
19291;SDS011;9779;51.756;7.450;2023-01-08T14:36:19;1.27;;;0.60;;
19291;SDS011;9779;51.756;7.450;2023-01-08T14:38:46;2.10;;;0.97;;
19291;SDS011;9779;51.756;7.450;2023-01-08T14:41:15;0.73;;;0.50;;
19291;SDS011;9779;51.756;7.450;2023-01-08T14:44:18;3.83;;;0.63;;
19291;SDS011;9779;51.756;7.450;2023-01-08T14:46:45;1.00;;;0.60;;
19291;SDS011;9779;51.756;7.450;2023-01-08T14:49:22;1.20;;;1.10;;
19291;SDS011;9779;51.756;7.450;2023-01-08T14:51:50;1.50;;;1.30;;
19291;SDS011;9779;51.756;7.450;2023-01-08T14:54:17;1.80;;;0.90;;
19291;SDS011;9779;51.756;7.450;2023-01-08T14:56:48;1.23;;;0.80;;
19291;SDS011;9779;51.756;7.450;2023-01-08T14:59:17;0.90;;;0.77;;
19291;SDS011;9779;51.756;7.450;2023-01-08T15:01:56;1.83;;;0.80;;
19291;SDS011;9779;51.756;7.450;2023-01-08T15:04:24;4.60;;;0.67;;
19291;SDS011;9779;51.756;7.450;2023-01-08T15:06:52;1.13;;;0.80;;
19291;SDS011;9779;51.756;7.450;2023-01-08T15:09:33;1.87;;;0.90;;
19291;SDS011;9779;51.756;7.450;2023-01-08T15:12:03;1.07;;;0.83;;
19291;SDS011;9779;51.756;7.450;2023-01-08T15:14:30;1.33;;;1.00;;
19291;SDS011;9779;51.756;7.450;2023-01-08T15:17:43;1.37;;;0.97;;
19291;SDS011;9779;51.756;7.450;2023-01-08T15:19:52;0.80;;;0.80;;
19291;SDS011;9779;51.756;7.450;2023-01-08T15:22:21;1.27;;;0.97;;
19291;SDS011;9779;51.756;7.450;2023-01-08T15:24:57;2.43;;;1.00;;
19291;SDS011;9779;51.756;7.450;2023-01-08T15:27:24;0.90;;;0.90;;
19291;SDS011;9779;51.756;7.450;2023-01-08T15:29:52;3.10;;;0.90;;
19291;SDS011;9779;51.756;7.450;2023-01-08T15:32:30;1.90;;;1.30;;
19291;SDS011;9779;51.756;7.450;2023-01-08T15:35:01;0.90;;;0.90;;
19291;SDS011;9779;51.756;7.450;2023-01-08T15:37:49;1.33;;;1.00;;
19291;SDS011;9779;51.756;7.450;2023-01-08T15:40:15;4.13;;;0.87;;
19291;SDS011;9779;51.756;7.450;2023-01-08T15:42:42;1.33;;;0.83;;
19291;SDS011;9779;51.756;7.450;2023-01-08T15:45:27;1.43;;;1.30;;
19291;SDS011;9779;51.756;7.450;2023-01-08T15:47:55;2.20;;;2.00;;
19291;SDS011;9779;51.756;7.450;2023-01-08T15:50:21;3.83;;;3.50;;
19291;SDS011;9779;51.756;7.450;2023-01-08T15:52:48;1.97;;;1.30;;
19291;SDS011;9779;51.756;7.450;2023-01-08T15:55:18;1.80;;;1.70;;
19291;SDS011;9779;51.756;7.450;2023-01-08T15:57:45;2.70;;;2.00;;
19291;SDS011;9779;51.756;7.450;2023-01-08T16:00:11;2.80;;;2.60;;
19291;SDS011;9779;51.756;7.450;2023-01-08T16:02:47;2.40;;;2.20;;
19291;SDS011;9779;51.756;7.450;2023-01-08T16:05:15;1.90;;;1.40;;
19291;SDS011;9779;51.756;7.450;2023-01-08T16:07:42;1.30;;;1.20;;
19291;SDS011;9779;51.756;7.450;2023-01-08T16:10:10;1.20;;;1.00;;
19291;SDS011;9779;51.756;7.450;2023-01-08T16:12:36;1.47;;;1.37;;
19291;SDS011;9779;51.756;7.450;2023-01-08T16:15:01;1.67;;;1.23;;
19291;SDS011;9779;51.756;7.450;2023-01-08T16:17:28;3.20;;;1.20;;
19291;SDS011;9779;51.756;7.450;2023-01-08T16:19:54;3.37;;;1.47;;
19291;SDS011;9779;51.756;7.450;2023-01-08T16:22:19;2.17;;;1.97;;